Flight Track Log - Related Links

Times and Time Zones

All times are in EDT time to prevent confusion due to time zone crossing. See the QFA1074 flight status page for this flight to view local times or setup timezone preferences in your user account.


Time Position Orientation Groundspeed Altitude Reporting Facility
EDT Latitude Longitude Course Direction KTS MPH feet Rate Location/Type
Sun 10:03:08 PM -31.9310 115.9610 25° Northeast 2 2  Level FlightAware ADS-B
Sun 10:06:04 PM -31.9320 115.9620 140° Southeast 11 13 95 Level FlightAware ADS-B
Sun 10:06:29 PM -31.9320 115.9630 90° East 10 12 137 Level FlightAware ADS-B
Sun 10:07:14 PM -31.9350 115.9620 196° South 17 20 146 Level FlightAware ADS-B
Sun 10:07:24 PM -31.9360 115.9620 180° South 16 18 167 Level FlightAware ADS-B
Sun 10:07:38 PM -31.9370 115.9620 180° South 14 16 172 Level FlightAware ADS-B
Sun 10:08:09 PM -31.9380 115.9620 180° South 14 16 180 Level FlightAware ADS-B
Sun 10:08:34 PM -31.9400 115.9630 157° South 16 18 201 Level FlightAware ADS-B
Sun 10:09:04 PM -31.9420 115.9620 203° Southwest 16 18 221 Level FlightAware ADS-B
Sun 10:09:19 PM -31.9430 115.9620 180° South 15 17 252 Level FlightAware ADS-B
Sun 10:09:24 PM -31.9430 115.9610 270° West 14 16 271 Level FlightAware ADS-B
Sun 10:09:49 PM -31.9420 115.9600 320° Northwest 12 14 278 Level FlightAware ADS-B
Sun 10:11:38 PM -31.9400 115.9600 360° North 31 36 320 Level FlightAware ADS-B
Sun 10:12:09 PM -31.9330 115.9750 61° Northeast 160 184 900 Level FlightAware ADS-B
Sun 10:12:38 PM -31.9230 115.9950 60° Northeast 152 175 900 1,920 Climbing FlightAware ADS-B
Sun 10:12:59 PM -31.9140 116.0130 60° Northeast 181 208 1,600 1,964 Climbing FlightAware ADS-B
Sun 10:13:33 PM -31.8970 116.0450 58° Northeast 217 250 2,700 2,045 Climbing FlightAware ADS-B
Sun 10:13:43 PM -31.8920 116.0560 62° Northeast 226 260 3,100 1,610 Climbing FlightAware ADS-B
Sun 10:14:14 PM -31.8730 116.0930 59° Northeast 279 321 3,800 1,700 Climbing FlightAware ADS-B
Sun 10:14:43 PM -31.8550 116.1370 64° Northeast 314 361 4,800 2,444 Climbing FlightAware ADS-B
Sun 10:15:08 PM -31.8460 116.1800 76° East 326 375 6,000 3,000 Climbing FlightAware ADS-B
Sun 10:15:39 PM -31.8350 116.2330 76° East 335 386 7,600 3,818 Climbing FlightAware ADS-B
Sun 10:15:41 PM -31.8350 116.2363 76° East 318 366 8,100 3,000 Climbing Aus ATC (RADAR)
Sun 10:16:03 PM -31.8270 116.2780 78° East 342 394 8,800 2,559 Climbing FlightAware ADS-B
Sun 10:16:49 PM -31.8100 116.3640 77° East 359 413 11,000 2,824 Climbing FlightAware ADS-B
Sun 10:17:28 PM -31.7820 116.4330 64° Northeast 369 425 12,800 2,960 Climbing FlightAware ADS-B
Sun 10:18:04 PM -31.7365 116.4690 64° Northeast 369 425 14,700 2,455 Climbing Aus ATC (RADAR)
Sun 10:18:12 PM -31.7240 116.4790 64° Northeast 373 429 14,600 2,040 Descending FlightAware ADS-B
Sun 10:18:54 PM -31.6570 116.5320 34° Northeast 394 453 16,400 2,370 Climbing FlightAware ADS-B
Sun 10:19:33 PM -31.5970 116.5810 35° Northeast 408 470 17,800 2,100 Climbing FlightAware ADS-B
Sun 10:20:14 PM -31.5320 116.6330 34° Northeast 415 478 19,200 2,385 Climbing FlightAware ADS-B
Sun 10:20:51 PM -31.4725 116.6798 34° Northeast 421 484 20,900 2,045 Climbing Aus ATC (RADAR)
Sun 10:20:58 PM -31.4580 116.6910 34° Northeast 427 491 20,700 1,867 Descending FlightAware ADS-B
Sun 10:21:36 PM -31.3967 116.7394 34° Northeast 432 497 22,300 1,826 Climbing Aus ATC (RADAR)
Sun 10:21:44 PM -31.3820 116.7510 34° Northeast 444 511 22,100 1,404 Descending FlightAware ADS-B
Sun 10:22:23 PM -31.3150 116.8040 34° Northeast 452 520 23,400 2,250 Climbing FlightAware ADS-B
Sun 10:22:56 PM -31.2586 116.8486 34° Northeast 449 517 24,800 1,733 Climbing Aus ATC (RADAR)
Sun 10:23:08 PM -31.2350 116.8670 34° Northeast 452 520 24,700 1,000 Descending FlightAware ADS-B
Sun 10:23:38 PM -31.1810 116.9100 34° Northeast 463 533 25,500 1,520 Climbing FlightAware ADS-B
Sun 10:24:23 PM -31.1010 116.9730 34° Northeast 466 536 26,600 1,326 Climbing FlightAware ADS-B
Sun 10:25:04 PM -31.0270 117.0300 33° Northeast 481 554 27,400 1,562 Climbing FlightAware ADS-B
Sun 10:25:36 PM -30.9693 117.0759 33° Northeast 478 550 28,500 1,235 Climbing Aus ATC (RADAR)
Sun 10:25:38 PM -30.9620 117.0810 33° Northeast 488 562 28,100 1,200 Descending FlightAware ADS-B
Sun 10:26:11 PM -30.9032 117.1272 33° Northeast 486 559 29,200 1,174 Climbing Aus ATC (RADAR)
Sun 10:26:24 PM -30.8760 117.1480 33° Northeast 494 568 29,000 923 Descending FlightAware ADS-B
Sun 10:27:03 PM -30.7940 117.1930 25° Northeast 485 558 30,000 1,482 Climbing FlightAware ADS-B
Sun 10:27:49 PM -30.6980 117.2380 22° Northeast 484 557 31,100 1,482 Climbing FlightAware ADS-B
Sun 10:28:28 PM -30.6140 117.2760 22° Northeast 482 555 32,100 2,000 Climbing FlightAware ADS-B
Sun 10:28:31 PM -30.6123 117.2765 22° Northeast 487 560 32,500 1,467 Climbing Aus ATC (RADAR)
Sun 10:29:13 PM -30.5210 117.3190 22° Northeast 483 556 33,200 1,231 Climbing FlightAware ADS-B
Sun 10:29:49 PM -30.4490 117.3520 22° Northeast 470 541 34,100 2,270 Climbing FlightAware ADS-B
Sun 10:29:50 PM -30.4459 117.3529 22° Northeast 480 552 34,600 1,538 Climbing Aus ATC (RADAR)
Sun 10:30:28 PM -30.3670 117.3900 22° Northeast 471 542 35,100 1,263 Climbing FlightAware ADS-B
Sun 10:31:06 PM -30.2936 117.4226 22° Northeast 469 540 36,200 1,024 Climbing Aus ATC (RADAR)
Sun 10:31:09 PM -30.2840 117.4270 22° Northeast 470 541 35,800 529 Descending FlightAware ADS-B
Sun 10:31:40 PM -30.2230 117.4553 22° Northeast 470 541 36,500 409 Climbing Aus ATC (RADAR)
Sun 10:31:53 PM -30.1950 117.4680 22° Northeast 470 541 36,100 -273 Descending FlightAware ADS-B
Sun 10:32:24 PM -30.1300 117.4980 22° Northeast 485 558 36,300 1,125 Climbing FlightAware ADS-B
Sun 10:32:25 PM -30.1296 117.4970 22° Northeast 481 554 36,700 1,000 Climbing Aus ATC (RADAR)
Sun 10:33:00 PM -30.0562 117.5310 22° Northeast 487 560 36,900 -279 Climbing Aus ATC (RADAR)
Sun 10:33:08 PM -30.0350 117.5410 22° Northeast 487 560 36,500 267 Descending FlightAware ADS-B
Sun 10:33:45 PM -29.9599 117.5756 22° Northeast 499 574 37,100 293 Climbing Aus ATC (RADAR)
Sun 10:33:49 PM -29.9490 117.5800 22° Northeast 501 577 36,700 -140 Descending FlightAware ADS-B
Sun 10:34:28 PM -29.8640 117.6190 22° Northeast 502 578 37,000 228 Climbing FlightAware ADS-B
Sun 10:35:08 PM -29.7770 117.6580 21° North 499 574 37,000  Level FlightAware ADS-B
Sun 10:35:48 PM -29.6930 117.6970 21° North 501 577 37,000 714 Level FlightAware ADS-B
Sun 10:35:50 PM -29.6906 117.6972 21° North 499 574 37,500  Climbing Aus ATC (RADAR)
Sun 10:36:28 PM -29.6070 117.7350 21° North 500 575 37,000 -380 Descending FlightAware ADS-B
Sun 10:37:09 PM -29.5180 117.7740 21° North 500 575 37,000  Level FlightAware ADS-B
Sun 10:37:53 PM -29.4230 117.8170 22° Northeast 501 577 37,000  Level FlightAware ADS-B
Sun 10:38:36 PM -29.3310 117.8580 21° North 498 573 37,000  Level FlightAware ADS-B
Sun 10:39:16 PM -29.2430 117.8980 21° North 487 560 37,000 682 Level FlightAware ADS-B
Sun 10:39:20 PM -29.2377 117.8974 21° North 495 570 37,500  Climbing Aus ATC (RADAR)
Sun 10:39:51 PM -29.1690 117.9310 21° North 486 559 37,000  Descending FlightAware ADS-B
Sun 10:39:55 PM -29.1637 117.9319 21° North 495 570 37,500  Climbing Aus ATC (RADAR)
Sun 10:40:37 PM -29.0730 117.9740 21° North 484 557 37,000 -150 Descending FlightAware ADS-B
Sun 10:41:15 PM -28.9932 118.0058 21° North 490 564 37,300  Climbing Aus ATC (RADAR)
Sun 10:41:27 PM -28.9670 118.0210 21° North 487 560 37,000 -340 Descending FlightAware ADS-B
Sun 10:42:08 PM -28.8890 118.0560 21° North 483 556 37,000  Level FlightAware ADS-B
Sun 10:43:00 PM -28.7970 118.0960 21° North 483 556 37,000  Level FlightAware ADS-B
Sun 10:43:36 PM -28.7330 118.1240 21° North 483 556 37,000  Level FlightAware ADS-B
Sun 10:44:13 PM -28.6670 118.1530 21° North 483 556 37,000 429 Level FlightAware ADS-B
Sun 10:44:18 PM -28.6166 118.1660 21° North 480 552 37,300  Climbing Aus ATC (RADAR)
Sun 10:44:49 PM -28.6030 118.1810 21° North 483 556 37,000 -228 Descending FlightAware ADS-B
Sun 10:45:37 PM -28.5180 118.2180 21° North 483 556 37,000 225 Level FlightAware ADS-B
Sun 10:46:09 PM -28.3893 118.2642 21° North 476 548 37,300  Climbing Aus ATC (RADAR)
Sun 10:46:13 PM -28.4540 118.2460 21° North 483 556 37,000 -450 Descending FlightAware ADS-B
Sun 10:46:49 PM -28.3910 118.2740 21° North 483 556 37,000  Level FlightAware ADS-B
Sun 10:47:37 PM -28.3050 118.3110 21° North 483 556 37,000  Level FlightAware ADS-B
Sun 10:48:14 PM -28.2400 118.3400 21° North 483 556 37,000  Level FlightAware ADS-B
Sun 10:49:03 PM -28.1530 118.3770 21° North 483 556 37,000  Level FlightAware ADS-B
Sun 10:49:40 PM -28.0870 118.4060 21° North 483 556 37,000  Level FlightAware ADS-B
Sun 10:50:04 PM -27.9032 118.4716 194° South 37,000  Level Aus ATC (Calculated)
Sun 10:50:28 PM -28.0020 118.4430 21° North 483 556 37,000  Level FlightAware ADS-B
Sun 10:51:04 PM -27.9380 118.4710 21° North 483 556 37,000  Level FlightAware ADS-B
Sun 10:51:41 PM -27.8730 118.4990 21° North 483 556 37,000 19 Level FlightAware ADS-B
Sun 10:54:00 PM -27.6112 118.6131 21° North  Level FlightAware Approximate
Sun 10:54:21 PM -27.3323 118.7268 21° North 37,000  Level Aus ATC (Calculated)
Sun 10:56:00 PM -27.1464 118.8093 22° Northeast  Level FlightAware Approximate
Sun 10:56:08 PM -27.1181 118.8219 21° North 37,000  Level Aus ATC (Calculated)
Sun 10:58:00 PM -26.9077 118.9149 22° Northeast  Level FlightAware Approximate
Sun 10:59:00 PM -26.7950 118.9645 21° North  Level FlightAware Approximate
Sun 10:59:15 PM -26.7074 118.9980 21° North 37,000  Level Aus ATC (Calculated)
Sun 11:01:00 PM -26.9099 118.9279 197° South  Level FlightAware Approximate
Sun 11:02:00 PM -26.7942 118.9680 17° North  Level FlightAware Approximate
Sun 11:03:00 PM -26.6761 119.0155 21° North  Level FlightAware Approximate
Sun 11:04:00 PM -26.5628 119.0635 21° North  Level FlightAware Approximate
Sun 11:04:10 PM -26.0952 119.2580 22° Northeast 37,000  Level Aus ATC (Calculated)
Sun 11:06:00 PM -25.8842 119.3469 21° North  Level FlightAware Approximate
Sun 11:06:52 PM -25.8188 119.3844 21° North 529 609 37,300  Level Aus ATC (RADAR)
Sun 11:07:28 PM -25.7497 119.4099 18° North 472 543 37,300  Level Aus ATC (RADAR)
Sun 11:08:03 PM -25.6820 119.4348 18° North 455 524 37,300  Level Aus ATC (RADAR)
Sun 11:08:37 PM -25.6112 119.4645 21° North 460 529 37,300  Level Aus ATC (RADAR)
Sun 11:09:17 PM -25.5306 119.4979 20° North 464 534 37,300  Level Aus ATC (RADAR)
Sun 11:10:19 PM -25.4099 119.5476 20° North 462 532 37,300 -52 Level Aus ATC (RADAR)
Sun 11:11:12 PM -25.2992 119.5930 20° North 461 531 37,200 -53 Descending Aus ATC (RADAR)
Sun 11:12:12 PM -25.1762 119.6449 21° North 471 542 37,200  Level Aus ATC (RADAR)
Sun 11:12:52 PM -25.0968 119.6764 20° North 462 532 37,200  Level Aus ATC (RADAR)
Sun 11:13:27 PM -25.0255 119.7060 21° North 465 535 37,200  Level Aus ATC (RADAR)
Sun 11:14:12 PM -24.9324 119.7455 21° North 474 545 37,200  Level Aus ATC (RADAR)
Sun 11:15:12 PM -24.8113 119.7948 20° North 469 540 37,200  Level Aus ATC (RADAR)
Sun 11:15:56 PM -24.7203 119.8319 20° North 464 534 37,200  Level Aus ATC (RADAR)
Sun 11:17:01 PM -24.5886 119.8855 20° North 468 539 37,200  Level Aus ATC (RADAR)
Sun 11:17:36 PM -24.5163 119.9154 21° North 470 541 37,200  Level Aus ATC (RADAR)
Sun 11:18:16 PM -24.4382 119.9465 20° North 457 526 37,200  Level Aus ATC (RADAR)
Sun 11:18:56 PM -24.3577 119.9793 20° North 460 529 37,200  Level Aus ATC (RADAR)
Sun 11:19:56 PM -24.2366 120.0288 20° North 462 532 37,200  Level Aus ATC (RADAR)
Sun 11:20:46 PM -24.1331 120.0707 20° North 471 542 37,200  Level Aus ATC (RADAR)
Sun 11:21:31 PM -24.0432 120.1068 20° North 464 534 37,200  Level Aus ATC (RADAR)
Sun 11:22:11 PM -23.9631 120.1394 20° North 461 531 37,200  Level Aus ATC (RADAR)
Sun 11:23:01 PM -23.8623 120.1803 20° North 464 534 37,200  Level Aus ATC (RADAR)
Sun 11:23:46 PM -23.7688 120.2174 20° North 470 541 37,200  Level Aus ATC (RADAR)
Sun 11:24:21 PM -23.7055 120.2443 21° North 432 497 37,200  Level Aus ATC (RADAR)
Sun 11:24:56 PM -23.6356 120.2726 20° North 411 473 37,200  Level Aus ATC (RADAR)
Sun 11:25:30 PM -23.5647 120.3010 20° North 441 507 37,200  Level Aus ATC (RADAR)
Sun 11:26:06 PM -23.4910 120.3295 20° North 461 531 37,200  Level Aus ATC (RADAR)
Sun 11:27:06 PM -23.3730 120.3770 20° North 453 521 37,200  Level Aus ATC (RADAR)
Sun 11:28:05 PM -23.2528 120.4243 20° North 459 528 37,200  Level Aus ATC (RADAR)
Sun 11:28:50 PM -23.1654 120.4598 20° North 451 519 37,200  Level Aus ATC (RADAR)
Sun 11:29:25 PM -23.0965 120.4872 20° North 450 518 37,200  Level Aus ATC (RADAR)
Sun 11:30:10 PM -23.0091 120.5224 20° North 447 514 37,200  Level Aus ATC (RADAR)
Sun 11:30:40 PM -22.9498 120.5457 20° North 449 517 37,200  Level Aus ATC (RADAR)
Sun 11:31:15 PM -22.8807 120.5731 20° North 451 519 37,200  Level Aus ATC (RADAR)
Sun 11:32:10 PM -22.7718 120.6164 20° North 454 522 37,200  Level Aus ATC (RADAR)
Sun 11:33:05 PM -22.6635 120.6591 20° North 449 517 37,200  Level Aus ATC (RADAR)
Sun 11:33:49 PM -22.5754 120.6939 20° North 447 514 37,200  Level Aus ATC (RADAR)
Sun 11:34:24 PM -22.5079 120.7212 20° North 445 512 37,200  Level Aus ATC (RADAR)
Sun 11:35:09 PM -22.4199 120.7557 20° North 446 513 37,200  Level Aus ATC (RADAR)
Sun 11:36:09 PM -22.3012 120.8017 20° North 449 517 37,200  Level Aus ATC (RADAR)
Sun 11:37:04 PM -22.1942 120.8439 20° North 445 512 37,200  Level Aus ATC (RADAR)
Sun 11:38:04 PM -22.0760 120.8896 20° North 447 514 37,200  Level Aus ATC (RADAR)
Sun 11:38:44 PM -21.9991 120.9209 21° North 442 509 37,200  Level Aus ATC (RADAR)
Sun 11:39:19 PM -21.9307 120.9481 20° North 445 512 37,200  Level Aus ATC (RADAR)
Sun 11:39:54 PM -21.8618 120.9751 20° North 447 514 37,200 -343 Level Aus ATC (RADAR)
Sun 11:39:54 PM -21.8600 120.9760 19° North 453 521 37,000 -171 Descending FlightAware ADS-B
Sun 11:40:29 PM -21.7915 121.0017 19° North 451 519 37,100  Climbing Aus ATC (RADAR)
Sun 11:40:31 PM -21.7940 121.0020 20° North 453 521 37,000  Descending FlightAware ADS-B
Sun 11:41:04 PM -21.7221 121.0284 20° North 451 519 37,100  Climbing Aus ATC (RADAR)
Sun 11:41:17 PM -21.7170 121.0320 20° North 453 521 37,000  Descending FlightAware ADS-B
Sun 11:41:49 PM -21.6321 121.0627 20° North 453 521 37,100  Climbing Aus ATC (RADAR)
Sun 11:41:57 PM -21.6240 121.0680 20° North 455 524 37,000 -107 Descending FlightAware ADS-B
Sun 11:42:45 PM -21.5430 121.1000 20° North 455 524 37,000  Level FlightAware ADS-B
Sun 11:43:21 PM -21.4820 121.1230 19° North 455 524 37,000 68 Level FlightAware ADS-B
Sun 11:44:13 PM -21.3443 121.1739 19° North 451 519 37,100  Climbing Aus ATC (RADAR)
Sun 11:44:44 PM -21.3430 121.1780 19° North 455 524 37,000 -88 Descending FlightAware ADS-B
Sun 11:45:21 PM -21.2810 121.2020 20° North 455 524 37,000  Level FlightAware ADS-B
Sun 11:45:57 PM -21.2200 121.2260 20° North 455 524 37,000  Level FlightAware ADS-B
Sun 11:46:46 PM -21.1380 121.2580 20° North 455 524 37,000  Level FlightAware ADS-B
Sun 11:47:23 PM -21.0760 121.2820 20° North 455 524 37,000  Level FlightAware ADS-B
Sun 11:47:26 PM -20.9857 121.3140 185° South 37,000  Level Aus ATC (Calculated)
Sun 11:48:10 PM -20.9970 121.3130 20° North 455 524 37,000  Level FlightAware ADS-B
Sun 11:48:46 PM -20.9360 121.3370 20° North 455 524 37,000  Level FlightAware ADS-B
Sun 11:49:34 PM -20.8550 121.3680 20° North 455 524 37,000  Level FlightAware ADS-B
Sun 11:50:22 PM -20.7750 121.3990 20° North 455 524 37,000  Level FlightAware ADS-B
Sun 11:50:58 PM -20.7140 121.4230 20° North 455 524 37,000  Level FlightAware ADS-B
Sun 11:52:11 PM -20.4114 121.5360 20° North 37,000  Level Aus ATC (Calculated)
Sun 11:54:00 PM -20.2027 121.6162 20° North  Level FlightAware Approximate
Sun 11:54:37 PM -20.1441 121.6387 20° North 37,000  Level Aus ATC (Calculated)
Sun 11:55:11 PM -20.0908 121.6590 20° North 9,300 -30,778 Descending Aus ATC (Calculated)
Sun 11:55:31 PM -20.0392 121.6787 199° South 9,300  Level Aus ATC (Calculated)
Sun 11:57:00 PM -20.2101 121.6150 199° South  Level FlightAware Approximate
Sun 11:57:29 PM -19.8391 121.7549 20° North 9,300  Level Aus ATC (Calculated)
Sun 11:58:01 PM -19.7516 121.7882 20° North 9,300  Level Aus ATC (Calculated)
Sun 11:59:35 PM -19.5874 121.8505 200° South 9,300  Level Aus ATC (Calculated)
Mon 12:00:00 AM -19.9796 121.7015 200° South  Level FlightAware Approximate
Mon 12:01:00 AM -19.4185 121.8900 20° North  Level Estimated
Mon 12:01:16 AM -19.4437 121.9049 20° North 9,300  Level Aus ATC (Calculated)
Mon 12:01:46 AM -19.3808 121.9287 90° East 9,300  Level Aus ATC (Calculated)
Mon 12:01:55 AM -19.3808 121.9287 20° North 9,300  Level Aus ATC (Calculated)
Mon 12:03:00 AM -19.2563 121.9758 20° North  Level FlightAware Approximate
Mon 12:03:35 AM -19.2040 121.9955 20° North 9,300  Level Aus ATC (Calculated)
Mon 12:04:10 AM -19.1561 122.0135 20° North 9,300  Level Aus ATC (Calculated)
Mon 12:06:00 AM -18.9452 122.0929 20° North  Level FlightAware Approximate
Mon 12:06:17 AM -18.8867 122.1149 20° North 9,300  Level Aus ATC (Calculated)
Mon 12:07:10 AM -18.7744 122.1570 20° North 9,300  Level Aus ATC (Calculated)
Mon 12:09:00 AM -18.5635 122.2360 20° North  Level FlightAware Approximate
Mon 12:10:00 AM -18.4484 122.2790 20° North  Level FlightAware Approximate
Mon 12:10:15 AM -18.4375 122.2831 255° West 500  Level Aus ATC (Calculated)
Mon 12:12:00 AM -18.4918 122.0652 255° West  Level FlightAware Approximate
Mon 12:13:00 AM -18.4608 122.1898 75° East  Level FlightAware Approximate
Mon 12:13:10 AM -18.1919 122.2592 175° South 500  Level Aus ATC (Calculated)
Mon 12:15:00 AM -18.4148 122.2809 175° South  Level FlightAware Approximate
Mon 12:15:45 AM -18.0077 122.2413 87° East 500  Level Aus ATC (Calculated)
Mon 12:15:45 AM -18.0077 122.2413 175° South 500  Level Aus ATC (Calculated)
Mon 12:16:00 AM -18.5364 122.2928 175° South  Level FlightAware Approximate
Mon 12:17:00 AM -17.9447 122.2317 175° South  Level Estimated
Mon 12:18:00 AM -17.9447 122.2317 355° North  Level Estimated
Mon 12:19:00 AM -17.9447 122.2317 115° Southeast  Level Estimated
Mon 12:20:00 AM -17.9447 122.2317 115° Southeast  Level Estimated
Mon 12:21:00 AM -17.9447 122.2317 115° Southeast  Level Estimated

Login

Don't have an account? Register now (free) for customized features, flight alerts, and more!